Time;durP1;ratioP1;P1;durP2;ratioP2;P2;SDS_P1;SDS_P2;PMS_P1;PMS_P2;Temp;Humidity;BMP_temperature;BMP_pressure;BME280_temperature;BME280_humidity;BME280_pressure;Samples;Min_cycle;Max_cycle;Signal;HPM_P1;HPM_P2
2022/02/01 00:01:41;;;;;;;;;;;;;;;;;;2203844;59;31680;-74
2022/02/01 00:04:28;;;;;;;;;;;;;;;;;;2204587;59;21096;-74
2022/02/01 00:07:15;;;;;;;;;;;;;;;;;;2202735;67;118941;-74
2022/02/01 00:09:56;;;;;;;;;;;;;;;;;;2202081;67;90813;-74
2022/02/01 00:12:40;;;;;;;;;;;;;;;;;;2204833;67;37350;-74
2022/02/01 00:15:40;;;;;;;;;;;;;;;;;;2202905;67;169481;-74
2022/02/01 00:18:26;;;;;;;;;;;;;;;;;;2203291;59;67964;-74
2022/02/01 00:35:27;;;;;;;;;;;;;;;;;;2204356;59;21158;-74
2022/02/01 00:38:13;;;;;;;;;;;;;;;;;;2204039;59;31664;-75
2022/02/01 00:40:53;;;;;;;;;;;;;;;;;;2204653;59;16658;-74
2022/02/01 00:43:26;;;;;;;;;;;;;;;;;;2204621;59;14450;-74
2022/02/01 00:46:00;;;;;;;;;;;;;;;;;;2203990;67;24750;-75
2022/02/01 00:48:34;;;;;;;;;;;;;;;;;;2204782;67;16574;-74
2022/02/01 00:51:11;;;;;;;;;;;;;;;;;;2204931;59;19237;-75
2022/02/01 00:53:47;;;;;;;;;;;;;;;;;;2203792;59;16282;-74
2022/02/01 00:56:20;;;;;;;;;;;;;;;;;;2203115;59;16607;-74
2022/02/01 00:58:53;;;;;;;;;;;;;;;;;;2205159;59;34827;-74
2022/02/01 01:01:26;;;;;;;;;;;;;;;;;;2204153;59;16346;-75
2022/02/01 01:04:00;;;;;;;;;;;;;;;;;;2204674;59;32467;-75
2022/02/01 01:06:33;;;;;;;;;;;;;;;;;;2205504;59;18322;-75
2022/02/01 01:09:09;;;;;;;;;;;;;;;;;;2204355;59;30983;-75
2022/02/01 01:11:42;;;;;;;;;;;;;;;;;;2204276;59;19216;-75
2022/02/01 01:14:44;;;;;;;;;;;;;;;;;;2205280;59;20272;-74
2022/02/01 01:46:10;;;;;;;;;;;;;;;;;;2202016;59;28026;-70
2022/02/01 01:54:18;;;;;;;;;;;;;;;;;;2198510;59;22761;-70
2022/02/01 01:56:53;;;;;;;;;;;;;;;;;;2205300;59;19380;-70
2022/02/01 01:59:29;;;;;;;;;;;;;;;;;;2205812;67;18305;-70
2022/02/01 02:02:02;;;;;;;;;;;;;;;;;;2204564;59;22292;-70
2022/02/01 02:04:35;;;;;;;;;;;;;;;;;;2205836;67;14754;-70
2022/02/01 02:07:08;;;;;;;;;;;;;;;;;;2205679;59;21347;-70
2022/02/01 02:09:41;;;;;;;;;;;;;;;;;;2205061;59;16238;-70
2022/02/01 02:12:21;;;;;;;;;;;;;;;;;;2206323;67;17290;-70
2022/02/01 02:14:54;;;;;;;;;;;;;;;;;;2205580;63;15136;-70
2022/02/01 02:17:27;;;;;;;;;;;;;;;;;;2205646;59;21245;-71
2022/02/01 02:20:00;;;;;;;;;;;;;;;;;;2204410;59;19742;-70
2022/02/01 02:22:36;;;;;;;;;;;;;;;;;;2205538;59;20836;-70
2022/02/01 02:25:10;;;;;;;;;;;;;;;;;;2204590;59;13517;-70
2022/02/01 02:27:43;;;;;;;;;;;;;;;;;;2203909;59;16433;-70
2022/02/01 02:30:16;;;;;;;;;;;;;;;;;;2205901;59;18097;-70
2022/02/01 02:32:49;;;;;;;;;;;;;;;;;;2205678;59;23318;-70
2022/02/01 02:35:22;;;;;;;;;;;;;;;;;;2205387;59;13373;-70
2022/02/01 02:37:58;;;;;;;;;;;;;;;;;;2204737;59;19537;-70
2022/02/01 02:40:45;;;;;;;;;;;;;;;;;;2205077;59;23858;-71
2022/02/01 02:46:07;;;;;;;;;;;;;;;;;;2204904;64;17087;-70
2022/02/01 02:48:40;;;;;;;;;;;;;;;;;;2205584;64;17486;-70
2022/02/01 02:51:13;;;;;;;;;;;;;;;;;;2205720;59;27982;-71
2022/02/01 02:53:50;;;;;;;;;;;;;;;;;;2204775;59;15065;-70
2022/02/01 02:56:23;;;;;;;;;;;;;;;;;;2206000;59;15624;-70
2022/02/01 02:58:56;;;;;;;;;;;;;;;;;;2205870;59;14396;-70
2022/02/01 03:01:29;;;;;;;;;;;;;;;;;;2204488;59;18578;-70
2022/02/01 03:04:02;;;;;;;;;;;;;;;;;;2204931;63;19257;-70
2022/02/01 03:06:35;;;;;;;;;;;;;;;;;;2205722;67;26788;-70
2022/02/01 03:09:12;;;;;;;;;;;;;;;;;;2205258;67;19934;-71
2022/02/01 03:11:45;;;;;;;;;;;;;;;;;;2204384;59;32007;-70
2022/02/01 03:14:25;;;;;;;;;;;;;;;;;;2205913;59;16247;-70
2022/02/01 03:17:11;;;;;;;;;;;;;;;;;;2205646;59;18390;-71
2022/02/01 03:19:49;;;;;;;;;;;;;;;;;;2203888;59;22912;-70
2022/02/01 03:22:23;;;;;;;;;;;;;;;;;;2205032;59;31509;-70
2022/02/01 03:25:00;;;;;;;;;;;;;;;;;;2205158;67;39928;-71
2022/02/01 03:27:33;;;;;;;;;;;;;;;;;;2204984;59;26359;-71
2022/02/01 03:30:06;;;;;;;;;;;;;;;;;;2204956;59;15329;-70
2022/02/01 03:32:39;;;;;;;;;;;;;;;;;;2205683;67;19519;-70
2022/02/01 03:35:12;;;;;;;;;;;;;;;;;;2205449;63;20385;-71
2022/02/01 03:37:46;;;;;;;;;;;;;;;;;;2204873;59;24148;-70
2022/02/01 03:40:21;;;;;;;;;;;;;;;;;;2205740;59;16779;-70
2022/02/01 03:42:55;;;;;;;;;;;;;;;;;;2205362;63;17834;-70
2022/02/01 03:45:28;;;;;;;;;;;;;;;;;;2204672;59;22234;-73
2022/02/01 03:48:01;;;;;;;;;;;;;;;;;;2206215;67;20079;-70
2022/02/01 03:50:34;;;;;;;;;;;;;;;;;;2205939;59;26443;-70
2022/02/01 03:53:09;;;;;;;;;;;;;;;;;;2205289;67;26179;-71
2022/02/01 03:55:45;;;;;;;;;;;;;;;;;;2204016;63;21753;-70
2022/02/01 03:58:18;;;;;;;;;;;;;;;;;;2205792;59;19893;-71
2022/02/01 04:00:51;;;;;;;;;;;;;;;;;;2205448;59;21027;-70
2022/02/01 04:03:24;;;;;;;;;;;;;;;;;;2204965;67;19222;-71
2022/02/01 04:05:57;;;;;;;;;;;;;;;;;;2204795;59;17757;-70
2022/02/01 04:08:31;;;;;;;;;;;;;;;;;;2205851;63;21085;-70
2022/02/01 04:11:06;;;;;;;;;;;;;;;;;;2205373;67;29293;-70
2022/02/01 04:13:40;;;;;;;;;;;;;;;;;;2204895;63;16205;-70
2022/02/01 04:16:13;;;;;;;;;;;;;;;;;;2205901;59;14086;-70
2022/02/01 04:18:47;;;;;;;;;;;;;;;;;;2205475;59;13393;-70
2022/02/01 04:21:20;;;;;;;;;;;;;;;;;;2205167;59;19532;-70
2022/02/01 04:23:53;;;;;;;;;;;;;;;;;;2203999;59;19748;-71
2022/02/01 04:26:29;;;;;;;;;;;;;;;;;;2205016;59;25403;-70
2022/02/01 04:29:02;;;;;;;;;;;;;;;;;;2204484;59;15345;-70
2022/02/01 04:31:35;;;;;;;;;;;;;;;;;;2205054;59;28963;-70
2022/02/01 04:34:08;;;;;;;;;;;;;;;;;;2205911;67;22370;-70
2022/02/01 04:36:41;;;;;;;;;;;;;;;;;;2205456;59;15136;-70
2022/02/01 04:39:14;;;;;;;;;;;;;;;;;;2204856;59;16369;-71
2022/02/01 04:41:50;;;;;;;;;;;;;;;;;;2204397;59;21263;-71
2022/02/01 04:44:26;;;;;;;;;;;;;;;;;;2206363;59;31650;-70
2022/02/01 04:47:00;;;;;;;;;;;;;;;;;;2205417;59;14575;-70
2022/02/01 04:49:33;;;;;;;;;;;;;;;;;;2204600;59;18778;-70
2022/02/01 04:52:06;;;;;;;;;;;;;;;;;;2206357;59;15533;-70
2022/02/01 04:54:39;;;;;;;;;;;;;;;;;;2206113;59;13714;-70
2022/02/01 04:57:15;;;;;;;;;;;;;;;;;;2205237;59;18454;-71
2022/02/01 04:59:48;;;;;;;;;;;;;;;;;;2205013;59;22413;-70
2022/02/01 05:02:21;;;;;;;;;;;;;;;;;;2206195;67;15276;-70
2022/02/01 05:04:54;;;;;;;;;;;;;;;;;;2205797;59;22712;-70
2022/02/01 05:07:27;;;;;;;;;;;;;;;;;;2206080;59;20683;-70
2022/02/01 05:10:01;;;;;;;;;;;;;;;;;;2204542;59;15316;-71
2022/02/01 05:12:38;;;;;;;;;;;;;;;;;;2206379;67;24135;-71
2022/02/01 05:15:11;;;;;;;;;;;;;;;;;;2205930;67;21130;-71
2022/02/01 05:17:53;;;;;;;;;;;;;;;;;;2205340;59;20285;-70
2022/02/01 05:20:30;;;;;;;;;;;;;;;;;;2205961;59;15928;-70
2022/02/01 05:23:03;;;;;;;;;;;;;;;;;;2205772;59;16914;-70
2022/02/01 05:25:36;;;;;;;;;;;;;;;;;;2204612;59;26536;-70
2022/02/01 05:28:12;;;;;;;;;;;;;;;;;;2206391;67;14700;-70
2022/02/01 05:30:45;;;;;;;;;;;;;;;;;;2205770;59;23935;-70
2022/02/01 05:33:18;;;;;;;;;;;;;;;;;;2205535;59;19477;-70
2022/02/01 05:35:52;;;;;;;;;;;;;;;;;;2205357;67;17026;-70
2022/02/01 05:38:25;;;;;;;;;;;;;;;;;;2206495;59;16598;-71
2022/02/01 05:40:58;;;;;;;;;;;;;;;;;;2205666;59;19456;-70
2022/02/01 05:43:34;;;;;;;;;;;;;;;;;;2204172;59;16745;-70
2022/02/01 05:46:08;;;;;;;;;;;;;;;;;;2205547;59;27611;-70
2022/02/01 05:48:41;;;;;;;;;;;;;;;;;;2205945;59;15715;-70
2022/02/01 05:51:14;;;;;;;;;;;;;;;;;;2204111;59;20635;-70
2022/02/01 05:53:47;;;;;;;;;;;;;;;;;;2204894;59;18859;-71
2022/02/01 05:56:20;;;;;;;;;;;;;;;;;;2205975;59;22177;-71
2022/02/01 05:58:57;;;;;;;;;;;;;;;;;;2205032;59;17511;-70
2022/02/01 06:01:30;;;;;;;;;;;;;;;;;;2203407;59;17120;-71
2022/02/01 06:04:03;;;;;;;;;;;;;;;;;;2205950;59;16443;-71
2022/02/01 06:06:36;;;;;;;;;;;;;;;;;;2205836;67;23497;-71
2022/02/01 06:09:09;;;;;;;;;;;;;;;;;;2204923;59;18342;-70
2022/02/01 06:11:42;;;;;;;;;;;;;;;;;;2204674;59;20667;-70
2022/02/01 06:14:18;;;;;;;;;;;;;;;;;;2205626;59;15148;-70
2022/02/01 06:16:51;;;;;;;;;;;;;;;;;;2205905;59;18476;-70
2022/02/01 06:19:24;;;;;;;;;;;;;;;;;;2204077;59;29056;-70
2022/02/01 06:21:57;;;;;;;;;;;;;;;;;;2203543;59;15926;-70
2022/02/01 06:24:33;;;;;;;;;;;;;;;;;;2204758;59;15586;-71
2022/02/01 06:27:06;;;;;;;;;;;;;;;;;;2204997;59;25726;-70
2022/02/01 06:29:42;;;;;;;;;;;;;;;;;;2204257;59;21491;-70
2022/02/01 06:32:15;;;;;;;;;;;;;;;;;;2205991;67;15361;-70
2022/02/01 06:34:49;;;;;;;;;;;;;;;;;;2205109;59;18868;-70
2022/02/01 06:37:22;;;;;;;;;;;;;;;;;;2205281;59;29243;-70
2022/02/01 06:39:55;;;;;;;;;;;;;;;;;;2204697;59;15407;-70
2022/02/01 06:42:28;;;;;;;;;;;;;;;;;;2205539;59;15196;-70
2022/02/01 06:45:04;;;;;;;;;;;;;;;;;;2204892;59;17106;-70
2022/02/01 06:47:37;;;;;;;;;;;;;;;;;;2203543;59;16315;-71
2022/02/01 06:50:12;;;;;;;;;;;;;;;;;;2203726;59;25401;-70
2022/02/01 06:52:46;;;;;;;;;;;;;;;;;;2204934;59;23160;-70
2022/02/01 06:55:24;;;;;;;;;;;;;;;;;;2204510;59;19170;-70
2022/02/01 06:57:57;;;;;;;;;;;;;;;;;;2204402;67;20511;-71
2022/02/01 07:00:33;;;;;;;;;;;;;;;;;;2205224;59;24294;-70
2022/02/01 07:03:07;;;;;;;;;;;;;;;;;;2204642;59;15972;-70
2022/02/01 07:05:40;;;;;;;;;;;;;;;;;;2204395;59;24455;-70
2022/02/01 07:08:13;;;;;;;;;;;;;;;;;;2205109;59;30101;-70
2022/02/01 07:10:46;;;;;;;;;;;;;;;;;;2204482;59;19567;-70
2022/02/01 07:13:19;;;;;;;;;;;;;;;;;;2205001;67;19051;-70
2022/02/01 07:15:55;;;;;;;;;;;;;;;;;;2203713;59;18866;-70
2022/02/01 07:18:29;;;;;;;;;;;;;;;;;;2205282;59;18147;-71
2022/02/01 07:21:02;;;;;;;;;;;;;;;;;;2204638;59;15460;-70
2022/02/01 07:23:35;;;;;;;;;;;;;;;;;;2203605;59;26670;-70
2022/02/01 07:26:09;;;;;;;;;;;;;;;;;;2205932;59;15033;-71
2022/02/01 07:28:43;;;;;;;;;;;;;;;;;;2205493;59;12630;-70
2022/02/01 07:31:20;;;;;;;;;;;;;;;;;;2204123;59;31023;-70
2022/02/01 07:33:53;;;;;;;;;;;;;;;;;;2203827;59;29545;-70
2022/02/01 07:36:26;;;;;;;;;;;;;;;;;;2204285;59;15152;-70
2022/02/01 07:38:59;;;;;;;;;;;;;;;;;;2205248;64;22389;-71
2022/02/01 07:41:32;;;;;;;;;;;;;;;;;;2206969;53;25008;-70
2022/02/01 07:44:06;;;;;;;;;;;;;;;;;;2208075;59;14489;-70
2022/02/01 07:46:43;;;;;;;;;;;;;;;;;;2208676;59;18561;-70
2022/02/01 07:49:21;;;;;;;;;;;;;;;;;;2208334;59;14360;-71
2022/02/01 07:51:55;;;;;;;;;;;;;;;;;;2208180;59;21541;-71
2022/02/01 07:54:28;;;;;;;;;;;;;;;;;;2209468;59;12502;-70
2022/02/01 07:57:02;;;;;;;;;;;;;;;;;;2208199;59;23984;-71
2022/02/01 07:59:35;;;;;;;;;;;;;;;;;;2208271;59;18303;-71
2022/02/01 08:02:18;;;;;;;;;;;;;;;;;;2208714;59;16066;-71
2022/02/01 08:04:53;;;;;;;;;;;;;;;;;;2208873;59;13564;-70
2022/02/01 08:07:26;;;;;;;;;;;;;;;;;;2208346;59;23523;-70
2022/02/01 08:10:02;;;;;;;;;;;;;;;;;;2207623;59;22717;-71
2022/02/01 08:13:18;;;;;;;;;;;;;;;;;;2208975;59;26829;-71
2022/02/01 08:18:48;;;;;;;;;;;;;;;;;;2208872;67;16726;-71
2022/02/01 08:21:26;;;;;;;;;;;;;;;;;;2207688;59;13577;-70
2022/02/01 08:24:00;;;;;;;;;;;;;;;;;;2207985;59;14665;-71
2022/02/01 08:26:33;;;;;;;;;;;;;;;;;;2209514;59;16832;-72
2022/02/01 08:29:06;;;;;;;;;;;;;;;;;;2208335;59;21606;-71
2022/02/01 08:31:39;;;;;;;;;;;;;;;;;;2208346;63;15235;-71
2022/02/01 08:34:15;;;;;;;;;;;;;;;;;;2209771;63;18883;-70
2022/02/01 08:36:48;;;;;;;;;;;;;;;;;;2210044;67;14714;-71
2022/02/01 08:39:21;;;;;;;;;;;;;;;;;;2209480;59;17724;-70
2022/02/01 08:41:54;;;;;;;;;;;;;;;;;;2208704;59;15433;-71
2022/02/01 08:44:29;;;;;;;;;;;;;;;;;;2209617;67;20470;-71
2022/02/01 08:47:02;;;;;;;;;;;;;;;;;;2207823;59;17021;-70
2022/02/01 08:49:38;;;;;;;;;;;;;;;;;;2208254;59;21739;-70
2022/02/01 08:52:15;;;;;;;;;;;;;;;;;;2209731;59;14695;-71
2022/02/01 08:54:51;;;;;;;;;;;;;;;;;;2209131;59;15482;-71
2022/02/01 08:57:25;;;;;;;;;;;;;;;;;;2209562;59;13081;-71
2022/02/01 09:00:04;;;;;;;;;;;;;;;;;;2208692;59;23444;-71
2022/02/01 09:02:37;;;;;;;;;;;;;;;;;;2209009;59;15011;-71
2022/02/01 09:05:13;;;;;;;;;;;;;;;;;;2208147;59;14343;-70
2022/02/01 09:07:46;;;;;;;;;;;;;;;;;;2208976;59;22936;-71
2022/02/01 09:10:19;;;;;;;;;;;;;;;;;;2209789;59;14437;-71
2022/02/01 09:12:53;;;;;;;;;;;;;;;;;;2209857;67;15705;-71
2022/02/01 09:15:26;;;;;;;;;;;;;;;;;;2208780;59;17236;-71
2022/02/01 09:18:00;;;;;;;;;;;;;;;;;;2208587;63;25129;-71
2022/02/01 09:20:36;;;;;;;;;;;;;;;;;;2208132;59;16105;-71
2022/02/01 09:23:09;;;;;;;;;;;;;;;;;;2208468;59;19226;-71
2022/02/01 09:25:42;;;;;;;;;;;;;;;;;;2207799;59;15298;-71
2022/02/01 09:28:16;;;;;;;;;;;;;;;;;;2208823;59;16879;-71
2022/02/01 09:30:49;;;;;;;;;;;;;;;;;;2207361;59;18242;-71
2022/02/01 09:33:22;;;;;;;;;;;;;;;;;;2208358;59;16741;-71
2022/02/01 09:35:58;;;;;;;;;;;;;;;;;;2207923;59;29271;-71
2022/02/01 09:38:32;;;;;;;;;;;;;;;;;;2209511;59;15171;-71
2022/02/01 09:41:06;;;;;;;;;;;;;;;;;;2209118;59;13820;-71
2022/02/01 09:43:39;;;;;;;;;;;;;;;;;;2208515;59;18096;-71
2022/02/01 09:46:12;;;;;;;;;;;;;;;;;;2209903;67;15705;-71
2022/02/01 09:48:45;;;;;;;;;;;;;;;;;;2209311;59;16621;-71
2022/02/01 09:51:21;;;;;;;;;;;;;;;;;;2209110;59;26118;-71
2022/02/01 09:53:54;;;;;;;;;;;;;;;;;;2208729;59;15933;-71
2022/02/01 09:56:27;;;;;;;;;;;;;;;;;;2208664;59;16636;-71
2022/02/01 09:59:01;;;;;;;;;;;;;;;;;;2209248;59;13955;-71
2022/02/01 10:01:39;;;;;;;;;;;;;;;;;;2206956;59;16168;-71
2022/02/01 10:04:12;;;;;;;;;;;;;;;;;;2208575;59;16277;-71
2022/02/01 10:06:48;;;;;;;;;;;;;;;;;;2209509;59;16577;-70
2022/02/01 10:09:21;;;;;;;;;;;;;;;;;;2207870;59;15096;-71
2022/02/01 10:11:54;;;;;;;;;;;;;;;;;;2205986;59;23331;-71
2022/02/01 10:14:30;;;;;;;;;;;;;;;;;;2208520;59;14849;-70
2022/02/01 10:17:08;;;;;;;;;;;;;;;;;;2208446;67;13979;-71
2022/02/01 10:19:48;;;;;;;;;;;;;;;;;;2207533;59;18575;-71
2022/02/01 10:22:33;;;;;;;;;;;;;;;;;;2207740;59;24125;-71
2022/02/01 10:25:08;;;;;;;;;;;;;;;;;;2208691;59;20657;-71
2022/02/01 10:27:42;;;;;;;;;;;;;;;;;;2207601;59;16517;-71
2022/02/01 10:30:18;;;;;;;;;;;;;;;;;;2209376;67;19403;-71
2022/02/01 10:33:12;;;;;;;;;;;;;;;;;;2208251;59;18319;-72
2022/02/01 10:35:58;;;;;;;;;;;;;;;;;;2207319;59;15373;-71
2022/02/01 10:38:37;;;;;;;;;;;;;;;;;;2208669;59;27410;-71
2022/02/01 10:41:13;;;;;;;;;;;;;;;;;;2207491;59;20551;-71
2022/02/01 10:43:47;;;;;;;;;;;;;;;;;;2206726;59;18863;-71
2022/02/01 10:46:21;;;;;;;;;;;;;;;;;;2208669;59;14747;-71
2022/02/01 10:48:55;;;;;;;;;;;;;;;;;;2209169;67;16645;-71
2022/02/01 10:51:28;;;;;;;;;;;;;;;;;;2207686;59;14726;-72
2022/02/01 10:54:06;;;;;;;;;;;;;;;;;;2208252;59;25868;-71
2022/02/01 10:56:39;;;;;;;;;;;;;;;;;;2209329;59;15777;-71
2022/02/01 10:59:12;;;;;;;;;;;;;;;;;;2209280;59;14935;-71
2022/02/01 11:01:47;;;;;;;;;;;;;;;;;;2208052;59;17810;-71
2022/02/01 11:04:22;;;;;;;;;;;;;;;;;;2208694;59;23329;-71
2022/02/01 11:06:55;;;;;;;;;;;;;;;;;;2209227;59;21194;-71
2022/02/01 11:09:33;;;;;;;;;;;;;;;;;;2207445;59;26610;-74
2022/02/01 11:12:07;;;;;;;;;;;;;;;;;;2208488;59;20890;-71
2022/02/01 11:14:42;;;;;;;;;;;;;;;;;;2208267;59;16169;-71
2022/02/01 11:17:17;;;;;;;;;;;;;;;;;;2208851;63;13565;-71
2022/02/01 11:19:51;;;;;;;;;;;;;;;;;;2207715;59;18008;-72
2022/02/01 11:22:26;;;;;;;;;;;;;;;;;;2208741;59;20313;-71
2022/02/01 11:25:03;;;;;;;;;;;;;;;;;;2209042;59;23369;-71
2022/02/01 11:27:41;;;;;;;;;;;;;;;;;;2208236;63;34896;-71
2022/02/01 11:30:15;;;;;;;;;;;;;;;;;;2209805;67;18630;-71
2022/02/01 11:32:52;;;;;;;;;;;;;;;;;;2209126;59;20706;-71
2022/02/01 11:35:26;;;;;;;;;;;;;;;;;;2208798;67;17058;-71
2022/02/01 11:38:02;;;;;;;;;;;;;;;;;;2207555;59;23580;-71
2022/02/01 11:40:41;;;;;;;;;;;;;;;;;;2208725;59;20290;-71
2022/02/01 11:43:16;;;;;;;;;;;;;;;;;;2208553;59;31243;-72
2022/02/01 11:45:55;;;;;;;;;;;;;;;;;;2208978;59;15914;-71
2022/02/01 11:48:29;;;;;;;;;;;;;;;;;;2209388;59;16040;-71
2022/02/01 11:51:04;;;;;;;;;;;;;;;;;;2209101;59;16881;-71
2022/02/01 11:53:41;;;;;;;;;;;;;;;;;;2208300;59;16582;-71
2022/02/01 11:56:17;;;;;;;;;;;;;;;;;;2208748;59;18256;-71
2022/02/01 11:58:50;;;;;;;;;;;;;;;;;;2209127;59;22885;-71
2022/02/01 12:01:25;;;;;;;;;;;;;;;;;;2208696;59;19276;-71
2022/02/01 12:04:05;;;;;;;;;;;;;;;;;;2207804;59;19893;-71
2022/02/01 12:06:40;;;;;;;;;;;;;;;;;;2209489;66;12831;-71
2022/02/01 12:09:19;;;;;;;;;;;;;;;;;;2208596;59;15546;-71
2022/02/01 12:11:57;;;;;;;;;;;;;;;;;;2207143;59;22105;-71
2022/02/01 12:14:32;;;;;;;;;;;;;;;;;;2208730;59;15340;-72
2022/02/01 12:17:05;;;;;;;;;;;;;;;;;;2208286;59;17268;-71
2022/02/01 12:19:40;;;;;;;;;;;;;;;;;;2207681;59;21177;-71
2022/02/01 12:22:21;;;;;;;;;;;;;;;;;;2208489;59;17789;-71
2022/02/01 12:25:02;;;;;;;;;;;;;;;;;;2208410;59;16820;-71
2022/02/01 12:27:39;;;;;;;;;;;;;;;;;;2208223;59;23078;-72
2022/02/01 12:30:13;;;;;;;;;;;;;;;;;;2209248;67;27132;-71
2022/02/01 12:32:53;;;;;;;;;;;;;;;;;;2209086;59;16204;-71
2022/02/01 12:35:35;;;;;;;;;;;;;;;;;;2208356;59;19532;-71
2022/02/01 12:38:10;;;;;;;;;;;;;;;;;;2208168;63;21940;-71
2022/02/01 12:40:43;;;;;;;;;;;;;;;;;;2209615;59;16728;-71
2022/02/01 12:43:23;;;;;;;;;;;;;;;;;;2208601;59;12974;-71
2022/02/01 12:46:00;;;;;;;;;;;;;;;;;;2208267;59;22226;-71
2022/02/01 12:48:35;;;;;;;;;;;;;;;;;;2209146;59;17640;-71
2022/02/01 12:51:08;;;;;;;;;;;;;;;;;;2208502;59;16614;-71
2022/02/01 12:53:42;;;;;;;;;;;;;;;;;;2208239;59;15197;-71
2022/02/01 12:56:16;;;;;;;;;;;;;;;;;;2208517;59;15879;-71
2022/02/01 12:59:02;;;;;;;;;;;;;;;;;;2209309;59;19867;-71
2022/02/01 13:01:36;;;;;;;;;;;;;;;;;;2207025;59;23864;-72
2022/02/01 13:04:10;;;;;;;;;;;;;;;;;;2207759;59;15505;-71
2022/02/01 13:06:47;;;;;;;;;;;;;;;;;;2209148;59;20538;-72
2022/02/01 13:15:27;;;;;;;;;;;;;;;;;;2196949;59;15564;-71
2022/02/01 13:18:17;;;;;;;;;;;;;;;;;;2206572;64;28870;-72
2022/02/01 13:21:00;;;;;;;;;;;;;;;;;;2209031;59;16234;-71
2022/02/01 13:23:37;;;;;;;;;;;;;;;;;;2208391;59;21268;-71
2022/02/01 13:26:11;;;;;;;;;;;;;;;;;;2209439;67;13873;-71
2022/02/01 13:28:45;;;;;;;;;;;;;;;;;;2209259;59;22078;-71
2022/02/01 13:31:26;;;;;;;;;;;;;;;;;;2208359;59;19131;-72
2022/02/01 13:34:03;;;;;;;;;;;;;;;;;;2207851;59;28110;-71
2022/02/01 13:36:46;;;;;;;;;;;;;;;;;;2209107;67;20227;-71
2022/02/01 13:39:26;;;;;;;;;;;;;;;;;;2208621;67;28042;-71
2022/02/01 13:42:02;;;;;;;;;;;;;;;;;;2208323;53;26118;-70
2022/02/01 13:44:36;;;;;;;;;;;;;;;;;;2206868;59;21335;-70
2022/02/01 13:47:12;;;;;;;;;;;;;;;;;;2208988;59;24862;-71
2022/02/01 13:49:46;;;;;;;;;;;;;;;;;;2206925;59;41704;-71
2022/02/01 13:52:22;;;;;;;;;;;;;;;;;;2208997;63;56683;-71
2022/02/01 13:54:55;;;;;;;;;;;;;;;;;;2208140;59;88391;-72
2022/02/01 13:57:32;;;;;;;;;;;;;;;;;;2208386;59;24281;-72
2022/02/01 14:00:08;;;;;;;;;;;;;;;;;;2208833;67;23375;-71
2022/02/01 14:02:48;;;;;;;;;;;;;;;;;;2207910;59;45782;-71
2022/02/01 14:05:28;;;;;;;;;;;;;;;;;;2208153;59;39675;-71
2022/02/01 14:08:20;;;;;;;;;;;;;;;;;;2206978;59;86559;-72
2022/02/01 14:11:08;;;;;;;;;;;;;;;;;;2208418;59;65500;-70
2022/02/01 14:28:00;;;;;;;;;;;;;;;;;;2207299;59;45471;-71
2022/02/01 14:33:44;;;;;;;;;;;;;;;;;;2196969;59;23982;-72
2022/02/01 14:36:21;;;;;;;;;;;;;;;;;;2208996;59;23670;-71
2022/02/01 14:39:12;;;;;;;;;;;;;;;;;;2208568;59;68170;-71
2022/02/01 14:44:41;;;;;;;;;;;;;;;;;;2208888;64;34493;-71
2022/02/01 14:47:15;;;;;;;;;;;;;;;;;;2209114;67;22335;-71
2022/02/01 14:49:49;;;;;;;;;;;;;;;;;;2208257;59;23585;-71
2022/02/01 14:52:26;;;;;;;;;;;;;;;;;;2208054;59;25778;-71
2022/02/01 14:55:06;;;;;;;;;;;;;;;;;;2209084;59;21953;-70
2022/02/01 15:12:09;;;;;;;;;;;;;;;;;;2227163;66;27460;-72
2022/02/01 15:14:43;;;;;;;;;;;;;;;;;;2226841;66;86049;-71
2022/02/01 15:17:17;;;;;;;;;;;;;;;;;;2227644;66;20734;-71
2022/02/01 15:19:50;;;;;;;;;;;;;;;;;;2227326;58;29906;-70
2022/02/01 15:22:23;;;;;;;;;;;;;;;;;;2220080;58;38474;-70
2022/02/01 15:24:59;;;;;;;;;;;;;;;;;;2205838;59;45740;-70
2022/02/01 15:27:33;;;;;;;;;;;;;;;;;;2205129;59;99918;-70
2022/02/01 15:30:06;;;;;;;;;;;;;;;;;;2207573;59;91307;-70
2022/02/01 15:32:40;;;;;;;;;;;;;;;;;;2207882;59;23956;-70
2022/02/01 15:35:16;;;;;;;;;;;;;;;;;;2211340;59;15406;-70
2022/02/01 15:37:52;;;;;;;;;;;;;;;;;;2210868;59;22165;-70
2022/02/01 15:55:13;;;;;;;;;;;;;;;;;;2194748;59;16090;-70
2022/02/01 15:57:51;;;;;;;;;;;;;;;;;;2202216;59;55977;-70
2022/02/01 16:00:27;;;;;;;;;;;;;;;;;;2206411;59;28439;-70
2022/02/01 16:03:07;;;;;;;;;;;;;;;;;;2204402;59;17829;-70
2022/02/01 16:05:40;;;;;;;;;;;;;;;;;;2203734;59;27080;-69
2022/02/01 16:08:22;;;;;;;;;;;;;;;;;;2208177;59;19723;-69
2022/02/01 16:10:59;;;;;;;;;;;;;;;;;;2213232;59;57006;-70
2022/02/01 16:13:40;;;;;;;;;;;;;;;;;;2210357;59;58349;-70
2022/02/01 16:16:16;;;;;;;;;;;;;;;;;;2212310;63;16586;-70
2022/02/01 16:18:50;;;;;;;;;;;;;;;;;;2210534;58;22230;-70
2022/02/01 16:21:23;;;;;;;;;;;;;;;;;;2207719;59;23878;-70
2022/02/01 16:23:57;;;;;;;;;;;;;;;;;;2208655;59;16096;-70
2022/02/01 16:26:31;;;;;;;;;;;;;;;;;;2209972;58;30152;-70
2022/02/01 16:29:07;;;;;;;;;;;;;;;;;;2209117;59;16990;-70
2022/02/01 16:31:42;;;;;;;;;;;;;;;;;;2208653;59;26540;-70
2022/02/01 16:34:15;;;;;;;;;;;;;;;;;;2209587;59;37638;-70
2022/02/01 16:36:48;;;;;;;;;;;;;;;;;;2208888;59;23098;-70
2022/02/01 16:39:22;;;;;;;;;;;;;;;;;;2208314;59;22173;-69
2022/02/01 16:41:58;;;;;;;;;;;;;;;;;;2206415;59;109211;-70
2022/02/01 16:44:34;;;;;;;;;;;;;;;;;;2206501;59;23046;-69
2022/02/01 16:47:08;;;;;;;;;;;;;;;;;;2206959;67;25824;-69
2022/02/01 16:49:42;;;;;;;;;;;;;;;;;;2209036;59;56026;-70
2022/02/01 16:52:23;;;;;;;;;;;;;;;;;;2208061;59;15063;-70
2022/02/01 16:55:04;;;;;;;;;;;;;;;;;;2210677;58;21271;-70
2022/02/01 16:57:46;;;;;;;;;;;;;;;;;;2205473;58;45803;-71
2022/02/01 17:00:29;;;;;;;;;;;;;;;;;;2207873;63;48196;-71
2022/02/01 17:03:03;;;;;;;;;;;;;;;;;;2207059;59;22198;-71
2022/02/01 17:05:36;;;;;;;;;;;;;;;;;;2207693;59;20958;-71
2022/02/01 17:08:11;;;;;;;;;;;;;;;;;;2206214;59;26340;-71
2022/02/01 17:10:47;;;;;;;;;;;;;;;;;;2205638;66;20882;-71
2022/02/01 17:13:33;;;;;;;;;;;;;;;;;;2207603;59;71911;-71
2022/02/01 17:16:30;;;;;;;;;;;;;;;;;;2206356;59;14888;-71
2022/02/01 17:21:49;;;;;;;;;;;;;;;;;;2208823;59;21951;-71
2022/02/01 17:24:23;;;;;;;;;;;;;;;;;;2209894;59;47941;-71
2022/02/01 17:26:57;;;;;;;;;;;;;;;;;;2209599;59;18277;-71
2022/02/01 17:29:30;;;;;;;;;;;;;;;;;;2206679;58;28250;-71
2022/02/01 17:32:06;;;;;;;;;;;;;;;;;;2224554;63;100376;-71
2022/02/01 17:34:39;;;;;;;;;;;;;;;;;;2215827;66;17052;-71
2022/02/01 17:37:13;;;;;;;;;;;;;;;;;;2207334;59;33020;-71
2022/02/01 17:39:46;;;;;;;;;;;;;;;;;;2207434;64;30617;-71
2022/02/01 17:42:21;;;;;;;;;;;;;;;;;;2207573;59;50867;-71
2022/02/01 17:44:54;;;;;;;;;;;;;;;;;;2208160;67;24996;-71
2022/02/01 17:47:30;;;;;;;;;;;;;;;;;;2207814;59;34526;-71
2022/02/01 17:50:04;;;;;;;;;;;;;;;;;;2206687;59;103972;-71
2022/02/01 17:52:44;;;;;;;;;;;;;;;;;;2208453;59;27097;-71
2022/02/01 17:55:17;;;;;;;;;;;;;;;;;;2207357;59;31133;-71
2022/02/01 17:57:50;;;;;;;;;;;;;;;;;;2206098;67;54433;-72
2022/02/01 18:00:23;;;;;;;;;;;;;;;;;;2205804;66;71668;-71
2022/02/01 18:02:59;;;;;;;;;;;;;;;;;;2205187;59;88038;-71
2022/02/01 18:05:33;;;;;;;;;;;;;;;;;;2205287;59;21635;-71
2022/02/01 18:08:06;;;;;;;;;;;;;;;;;;2206609;59;28406;-71
2022/02/01 18:10:44;;;;;;;;;;;;;;;;;;2205314;59;29764;-71
2022/02/01 18:13:27;;;;;;;;;;;;;;;;;;2206395;59;17471;-71
2022/02/01 18:16:01;;;;;;;;;;;;;;;;;;2205503;59;34309;-72
2022/02/01 18:18:37;;;;;;;;;;;;;;;;;;2206286;59;15531;-71
2022/02/01 18:21:12;;;;;;;;;;;;;;;;;;2206437;59;23556;-71
2022/02/01 18:23:46;;;;;;;;;;;;;;;;;;2204170;59;29184;-72
2022/02/01 18:26:20;;;;;;;;;;;;;;;;;;2206733;59;33879;-71
2022/02/01 18:28:54;;;;;;;;;;;;;;;;;;2205255;59;163862;-71
2022/02/01 18:31:27;;;;;;;;;;;;;;;;;;2207159;59;23573;-71
2022/02/01 18:34:04;;;;;;;;;;;;;;;;;;2202664;59;108355;-71
2022/02/01 18:36:39;;;;;;;;;;;;;;;;;;2205703;59;15134;-71
2022/02/01 18:39:13;;;;;;;;;;;;;;;;;;2205908;59;24224;-71
2022/02/01 18:41:47;;;;;;;;;;;;;;;;;;2203926;59;76712;-71
2022/02/01 18:44:24;;;;;;;;;;;;;;;;;;2206728;63;45004;-71
2022/02/01 18:46:57;;;;;;;;;;;;;;;;;;2200683;58;32505;-72
2022/02/01 18:49:42;;;;;;;;;;;;;;;;;;2206469;59;111854;-71
2022/02/01 18:52:36;;;;;;;;;;;;;;;;;;2205817;59;21088;-71
2022/02/01 18:55:20;;;;;;;;;;;;;;;;;;2207393;59;17944;-72
2022/02/01 18:58:06;;;;;;;;;;;;;;;;;;2204023;59;31533;-71
2022/02/01 19:06:35;;;;;;;;;;;;;;;;;;2198093;59;70446;-71
2022/02/01 19:09:24;;;;;;;;;;;;;;;;;;2207505;59;15401;-71
2022/02/01 19:11:57;;;;;;;;;;;;;;;;;;2206558;67;39187;-71
2022/02/01 19:14:31;;;;;;;;;;;;;;;;;;2207601;64;32003;-71
2022/02/01 19:17:04;;;;;;;;;;;;;;;;;;2207488;67;23967;-71
2022/02/01 19:19:37;;;;;;;;;;;;;;;;;;2205428;59;55460;-71
2022/02/01 19:22:13;;;;;;;;;;;;;;;;;;2207242;58;48130;-71
2022/02/01 19:24:52;;;;;;;;;;;;;;;;;;2206613;59;18383;-71
2022/02/01 19:27:27;;;;;;;;;;;;;;;;;;2206587;59;18801;-71
2022/02/01 19:30:00;;;;;;;;;;;;;;;;;;2203971;67;51375;-71
2022/02/01 19:32:36;;;;;;;;;;;;;;;;;;2206426;59;20862;-72
2022/02/01 19:35:13;;;;;;;;;;;;;;;;;;2206231;67;22055;-72
2022/02/01 19:37:53;;;;;;;;;;;;;;;;;;2204380;59;23407;-71
2022/02/01 19:40:26;;;;;;;;;;;;;;;;;;2205135;59;41684;-70
2022/02/01 19:43:01;;;;;;;;;;;;;;;;;;2194104;53;13835;-71